createdAt,value
2022-12-22T00:03:08.139Z,1.72
2022-12-22T00:06:35.590Z,1.72
2022-12-22T00:10:02.168Z,1.76
2022-12-22T00:13:33.678Z,1.77
2022-12-22T00:17:01.428Z,1.76
2022-12-22T00:20:36.470Z,1.78
2022-12-22T00:24:03.211Z,1.80
2022-12-22T00:27:39.111Z,1.84
2022-12-22T00:31:05.988Z,1.86
2022-12-22T00:34:37.163Z,1.85
2022-12-22T00:38:03.938Z,1.84
2022-12-22T00:41:30.943Z,1.86
2022-12-22T00:44:57.854Z,1.88
2022-12-22T00:48:26.810Z,1.91
2022-12-22T00:51:54.890Z,1.91
2022-12-22T00:55:22.180Z,1.93
2022-12-22T00:58:49.549Z,1.96
2022-12-22T01:02:16.565Z,1.99
2022-12-22T01:05:44.052Z,2.01
2022-12-22T01:09:11.168Z,2.02
2022-12-22T01:12:41.919Z,2.05
2022-12-22T01:16:08.853Z,2.05
2022-12-22T01:19:35.746Z,2.09
2022-12-22T01:23:02.915Z,2.10
2022-12-22T01:26:30.936Z,2.13
2022-12-22T01:29:57.520Z,2.15
2022-12-22T01:33:24.186Z,2.14
2022-12-22T01:36:51.125Z,2.17
2022-12-22T01:40:18.002Z,2.19
2022-12-22T01:43:47.926Z,2.20
2022-12-22T01:47:35.007Z,2.23
2022-12-22T01:51:01.853Z,2.23
2022-12-22T01:54:29.874Z,2.24
2022-12-22T01:57:57.232Z,2.25
2022-12-22T02:01:24.583Z,2.26
2022-12-22T02:04:55.562Z,2.26
2022-12-22T02:08:32.642Z,2.28
2022-12-22T02:12:06.351Z,2.29
2022-12-22T02:15:41.769Z,2.29
2022-12-22T02:19:13.492Z,2.30
2022-12-22T02:22:47.008Z,2.30
2022-12-22T02:26:19.533Z,2.32
2022-12-22T02:29:51.199Z,2.33
2022-12-22T02:33:18.272Z,2.34
2022-12-22T02:36:50.846Z,2.36
2022-12-22T02:40:23.730Z,2.37
2022-12-22T02:44:04.189Z,2.39
2022-12-22T02:47:37.240Z,2.37
2022-12-22T02:51:08.448Z,2.37
2022-12-22T02:54:36.868Z,2.37
2022-12-22T02:58:03.722Z,2.36
2022-12-22T03:01:31.365Z,2.34
2022-12-22T03:04:58.641Z,2.29
2022-12-22T03:08:25.794Z,2.23
2022-12-22T03:11:52.385Z,2.17
2022-12-22T03:15:19.033Z,2.16
2022-12-22T03:18:45.728Z,2.13
2022-12-22T03:22:12.879Z,2.16
2022-12-22T03:25:40.139Z,2.18
2022-12-22T03:28:52.671Z,2.21
2022-12-22T03:32:05.015Z,2.23
2022-12-22T03:35:17.605Z,2.24
2022-12-22T03:38:30.743Z,2.25
2022-12-22T03:41:57.774Z,2.28
2022-12-22T03:45:28.186Z,2.33
2022-12-22T03:48:40.376Z,2.32
2022-12-22T03:51:54.451Z,2.33
2022-12-22T03:55:07.965Z,2.34
2022-12-22T03:58:20.375Z,2.33
2022-12-22T04:01:33.270Z,2.36
2022-12-22T04:04:45.763Z,2.35
2022-12-22T04:07:58.180Z,2.38
2022-12-22T04:11:24.973Z,2.41
2022-12-22T04:14:37.200Z,2.44
2022-12-22T04:17:49.436Z,2.46
2022-12-22T04:21:01.808Z,2.49
2022-12-22T04:24:15.470Z,2.52
2022-12-22T04:27:27.888Z,2.52
2022-12-22T04:30:40.209Z,2.53
2022-12-22T04:33:52.765Z,2.57
2022-12-22T04:37:14.838Z,2.57
2022-12-22T04:40:19.711Z,2.56
2022-12-22T04:43:31.976Z,2.57
2022-12-22T04:46:44.230Z,2.58
2022-12-22T04:49:56.539Z,2.58
2022-12-22T04:53:08.913Z,2.60
2022-12-22T04:56:21.262Z,2.62
2022-12-22T04:59:33.779Z,2.60
2022-12-22T05:02:46.560Z,2.60
2022-12-22T05:05:59.063Z,2.61
2022-12-22T05:09:11.766Z,2.61
2022-12-22T05:12:38.874Z,2.62
2022-12-22T05:15:51.865Z,2.59
2022-12-22T05:19:04.015Z,2.58
2022-12-22T05:22:16.971Z,2.61
2022-12-22T05:25:34.806Z,2.62
2022-12-22T05:28:44.211Z,2.65
2022-12-22T05:31:56.426Z,2.62
2022-12-22T05:35:10.713Z,2.61
2022-12-22T05:38:23.071Z,2.62
2022-12-22T05:41:35.287Z,2.60
2022-12-22T05:44:47.844Z,2.61
2022-12-22T05:48:00.557Z,2.60
2022-12-22T05:51:14.357Z,2.61
2022-12-22T05:54:26.703Z,2.60
2022-12-22T05:57:39.475Z,2.59
2022-12-22T06:00:51.963Z,2.59
2022-12-22T06:04:04.988Z,2.58
2022-12-22T06:07:18.584Z,2.59
2022-12-22T06:10:31.958Z,2.54
2022-12-22T06:13:44.434Z,2.49
2022-12-22T06:16:56.810Z,2.48
2022-12-22T06:20:10.699Z,2.49
2022-12-22T06:23:23.229Z,2.45
2022-12-22T06:26:35.387Z,2.42
2022-12-22T06:29:49.219Z,2.41
2022-12-22T06:33:03.863Z,2.42
2022-12-22T06:36:18.076Z,2.43
2022-12-22T06:39:31.845Z,2.46
2022-12-22T06:43:13.461Z,2.46
2022-12-22T06:46:26.836Z,2.46
2022-12-22T06:49:42.488Z,2.51
2022-12-22T06:52:54.905Z,2.55
2022-12-22T06:56:07.389Z,2.53
2022-12-22T06:59:19.918Z,2.54
2022-12-22T07:02:32.704Z,2.56
2022-12-22T07:05:45.885Z,2.59
2022-12-22T07:08:58.676Z,2.57
2022-12-22T07:12:11.851Z,2.57
2022-12-22T07:15:24.394Z,2.57
2022-12-22T07:18:39.228Z,2.56
2022-12-22T07:21:51.485Z,2.57
2022-12-22T07:25:04.063Z,2.60
2022-12-22T07:28:20.603Z,2.63
2022-12-22T07:31:30.800Z,2.64
2022-12-22T07:34:43.069Z,2.67
2022-12-22T07:37:57.233Z,2.69
2022-12-22T07:41:14.182Z,2.70
2022-12-22T07:44:26.823Z,2.73
2022-12-22T07:47:39.129Z,2.78
2022-12-22T07:50:51.341Z,2.83
2022-12-22T07:54:04.736Z,2.86
2022-12-22T07:57:17.282Z,2.89
2022-12-22T08:00:31.415Z,2.93
2022-12-22T08:03:43.742Z,2.87
2022-12-22T08:06:56.394Z,2.87
2022-12-22T08:10:09.407Z,2.91
2022-12-22T08:13:21.665Z,2.91
2022-12-22T08:16:34.817Z,2.95
2022-12-22T08:19:48.800Z,3.05
2022-12-22T08:23:02.374Z,3.14
2022-12-22T08:26:19.670Z,3.26
2022-12-22T08:29:36.203Z,3.27
2022-12-22T08:32:51.700Z,3.34
2022-12-22T08:36:08.244Z,3.48
2022-12-22T08:39:20.824Z,3.59
2022-12-22T08:42:34.609Z,3.66
2022-12-22T08:45:47.832Z,3.77
2022-12-22T08:49:01.781Z,3.93
2022-12-22T08:52:18.348Z,3.93
2022-12-22T08:55:29.063Z,4.00
2022-12-22T08:58:41.319Z,4.07
2022-12-22T09:01:54.393Z,4.16
2022-12-22T09:05:06.654Z,4.15
2022-12-22T09:08:19.009Z,4.16
2022-12-22T09:11:32.284Z,4.18
2022-12-22T09:14:44.653Z,4.20
2022-12-22T09:17:57.705Z,4.24
2022-12-22T09:21:10.174Z,4.25
2022-12-22T09:24:23.493Z,4.24
2022-12-22T09:27:38.065Z,4.16
2022-12-22T09:30:55.257Z,4.11
2022-12-22T09:34:10.701Z,4.14
2022-12-22T09:37:24.052Z,4.20
2022-12-22T09:40:37.972Z,4.26
2022-12-22T09:43:50.988Z,4.24
2022-12-22T09:47:07.625Z,4.35
2022-12-22T09:50:25.376Z,4.50
2022-12-22T09:53:39.212Z,4.62
2022-12-22T09:56:51.617Z,4.73
2022-12-22T10:00:11.492Z,4.79
2022-12-22T10:03:37.748Z,4.86
2022-12-22T10:06:56.849Z,5.00
2022-12-22T10:10:26.166Z,4.92
2022-12-22T10:13:40.142Z,5.02
2022-12-22T10:16:52.886Z,5.01
2022-12-22T10:20:29.896Z,5.10
2022-12-22T10:23:49.380Z,5.16
2022-12-22T10:27:08.488Z,5.17
2022-12-22T10:30:32.991Z,5.11
2022-12-22T10:33:47.962Z,5.09
2022-12-22T10:37:07.097Z,5.16
2022-12-22T10:40:30.650Z,5.13
2022-12-22T10:43:51.027Z,5.03
2022-12-22T10:47:15.453Z,4.94
2022-12-22T10:50:24.707Z,4.93
2022-12-22T10:53:54.682Z,4.87
2022-12-22T10:57:33.414Z,4.83
2022-12-22T11:00:47.353Z,4.80
2022-12-22T11:03:59.905Z,4.80
2022-12-22T11:07:17.136Z,4.81
2022-12-22T11:10:39.022Z,4.86
2022-12-22T11:14:18.669Z,4.83
2022-12-22T11:17:38.246Z,4.88
2022-12-22T11:21:04.329Z,4.92
2022-12-22T11:24:28.961Z,4.99
2022-12-22T11:27:48.305Z,5.09
2022-12-22T11:31:12.098Z,5.16
2022-12-22T11:34:39.188Z,5.13
2022-12-22T11:37:56.437Z,5.44
2022-12-22T11:41:11.169Z,5.82
2022-12-22T11:44:44.055Z,6.06
2022-12-22T11:48:03.011Z,6.34
2022-12-22T11:51:27.299Z,6.57
2022-12-22T11:55:08.941Z,6.76
2022-12-22T11:58:43.618Z,6.71
2022-12-22T12:02:20.735Z,6.43
2022-12-22T12:06:09.382Z,6.22
2022-12-22T12:09:28.977Z,6.39
2022-12-22T12:12:50.005Z,6.26
2022-12-22T12:16:07.770Z,6.10
2022-12-22T12:20:12.643Z,6.04
2022-12-22T12:23:48.026Z,5.99
2022-12-22T12:27:07.636Z,5.92
2022-12-22T12:30:39.864Z,5.95
2022-12-22T12:33:47.289Z,5.95
2022-12-22T12:37:03.193Z,5.90
2022-12-22T12:40:29.358Z,5.83
2022-12-22T12:43:42.979Z,5.81
2022-12-22T12:47:11.963Z,5.74
2022-12-22T12:50:41.657Z,5.67
2022-12-22T12:54:28.032Z,5.64
2022-12-22T12:57:54.606Z,5.61
2022-12-22T13:01:07.283Z,5.58
2022-12-22T13:04:35.487Z,5.57
2022-12-22T13:08:26.978Z,5.65
2022-12-22T13:15:07.355Z,5.67
2022-12-22T13:18:50.807Z,5.69
2022-12-22T13:22:01.915Z,5.62
2022-12-22T13:25:22.580Z,5.57
2022-12-22T13:28:35.966Z,5.62
2022-12-22T13:31:53.402Z,5.63
2022-12-22T13:35:37.499Z,5.64
2022-12-22T13:38:39.760Z,5.65
2022-12-22T13:41:54.471Z,5.69
2022-12-22T13:45:10.807Z,5.65
2022-12-22T13:48:29.146Z,5.72
2022-12-22T13:51:44.658Z,5.64
2022-12-22T13:54:57.185Z,5.57
2022-12-22T13:58:15.856Z,5.39
2022-12-22T14:01:28.710Z,5.30
2022-12-22T14:04:42.868Z,5.28
2022-12-22T14:08:10.454Z,5.10
2022-12-22T14:11:20.780Z,4.94
2022-12-22T14:14:38.237Z,4.94
2022-12-22T14:17:53.218Z,4.88
2022-12-22T14:21:05.579Z,4.78
2022-12-22T14:24:23.488Z,4.74
2022-12-22T14:27:43.255Z,4.70
2022-12-22T14:30:59.957Z,4.63
2022-12-22T14:34:32.682Z,4.58
2022-12-22T14:37:44.939Z,4.53
2022-12-22T14:40:59.263Z,4.51
2022-12-22T14:44:15.532Z,4.49
2022-12-22T14:47:31.808Z,4.46
2022-12-22T14:50:48.585Z,4.47
2022-12-22T14:54:04.229Z,4.45
2022-12-22T14:57:23.492Z,4.43
2022-12-22T15:00:42.652Z,4.48
2022-12-22T15:04:10.033Z,4.53
2022-12-22T15:10:47.444Z,4.59
2022-12-22T15:14:00.174Z,4.60
2022-12-22T15:17:26.239Z,4.61
2022-12-22T15:20:39.547Z,4.74
2022-12-22T15:23:53.352Z,4.88
2022-12-22T15:27:05.545Z,4.99
2022-12-22T15:30:28.829Z,5.03
2022-12-22T15:33:41.242Z,4.82
2022-12-22T15:36:53.602Z,4.63
2022-12-22T15:40:06.545Z,4.54
2022-12-22T15:46:36.190Z,4.77
2022-12-22T15:49:49.352Z,5.21
2022-12-22T15:53:04.911Z,5.71
2022-12-22T15:56:39.354Z,6.10
2022-12-22T16:04:12.236Z,6.68
2022-12-22T16:07:25.151Z,6.89
2022-12-22T16:10:40.261Z,6.96
2022-12-22T16:13:56.493Z,7.12
2022-12-22T16:20:17.975Z,7.30
2022-12-22T16:23:34.079Z,7.27
2022-12-22T16:26:51.233Z,7.27
2022-12-22T16:30:03.922Z,7.22
2022-12-22T16:33:18.717Z,6.99
2022-12-22T16:36:30.906Z,6.65
2022-12-22T16:39:43.189Z,6.58
2022-12-22T16:46:34.154Z,6.79
2022-12-22T16:49:46.453Z,7.08
2022-12-22T16:52:58.571Z,7.26
2022-12-22T16:56:13.479Z,7.34
2022-12-22T16:59:25.744Z,7.49
2022-12-22T17:02:40.585Z,7.59
2022-12-22T17:05:56.102Z,7.68
2022-12-22T17:09:11.150Z,7.70
2022-12-22T17:12:28.509Z,7.87
2022-12-22T17:15:41.277Z,8.00
2022-12-22T17:18:53.874Z,8.03
2022-12-22T17:22:06.926Z,8.01
2022-12-22T17:25:26.323Z,7.98
2022-12-22T17:28:42.355Z,8.00
2022-12-22T17:31:56.920Z,8.00
2022-12-22T17:35:10.262Z,7.90
2022-12-22T17:38:27.079Z,7.82
2022-12-22T17:41:37.965Z,7.78
2022-12-22T17:44:51.672Z,7.80
2022-12-22T17:48:04.269Z,7.71
2022-12-22T17:51:24.915Z,7.72
2022-12-22T17:54:37.873Z,7.62
2022-12-22T17:57:52.059Z,7.62
2022-12-22T18:01:04.493Z,7.63
2022-12-22T18:04:16.762Z,7.71
2022-12-22T18:07:30.877Z,7.65
2022-12-22T18:10:45.881Z,7.65
2022-12-22T18:13:59.252Z,7.62
2022-12-22T18:17:13.124Z,7.55
2022-12-22T18:20:28.694Z,7.53
2022-12-22T18:23:49.563Z,7.59
2022-12-22T18:26:57.638Z,7.59
2022-12-22T18:30:21.632Z,7.69
2022-12-22T18:33:33.831Z,7.80
2022-12-22T18:36:47.744Z,7.81
2022-12-22T18:40:00.011Z,7.77
2022-12-22T18:43:17.964Z,7.76
2022-12-22T18:46:31.887Z,7.77
2022-12-22T18:49:44.402Z,7.73
2022-12-22T18:52:58.419Z,7.75
2022-12-22T18:56:13.342Z,7.71
2022-12-22T18:59:33.628Z,7.72
2022-12-22T19:02:46.033Z,7.73
2022-12-22T19:05:58.603Z,7.69
2022-12-22T19:09:15.052Z,7.71
2022-12-22T19:12:28.824Z,7.67
2022-12-22T19:15:43.943Z,7.66
2022-12-22T19:18:57.961Z,7.64
2022-12-22T19:22:10.286Z,7.66
2022-12-22T19:25:25.268Z,7.67
2022-12-22T19:28:41.118Z,7.67
2022-12-22T19:31:53.744Z,7.66
2022-12-22T19:35:06.218Z,7.64
2022-12-22T19:38:28.180Z,7.61
2022-12-22T19:41:49.921Z,7.61
2022-12-22T19:45:08.496Z,7.59
2022-12-22T19:48:24.775Z,7.59
2022-12-22T19:51:38.702Z,7.59
2022-12-22T19:54:52.275Z,7.62
2022-12-22T19:58:07.664Z,7.69
2022-12-22T20:01:21.717Z,7.67
2022-12-22T20:04:37.747Z,7.73
2022-12-22T20:07:51.506Z,7.70
2022-12-22T20:11:05.965Z,7.68
2022-12-22T20:14:22.271Z,7.65
2022-12-22T20:17:36.966Z,7.71
2022-12-22T20:20:57.552Z,7.63
2022-12-22T20:24:15.549Z,7.70
2022-12-22T20:27:35.319Z,7.64
2022-12-22T20:30:49.557Z,7.68
2022-12-22T20:34:02.518Z,7.68
2022-12-22T20:37:21.729Z,7.58
2022-12-22T20:40:37.049Z,7.57
2022-12-22T20:43:49.500Z,7.56
2022-12-22T20:47:01.516Z,7.55
2022-12-22T20:50:25.861Z,7.60
2022-12-22T20:53:38.494Z,7.55
2022-12-22T20:56:51.655Z,7.55
2022-12-22T21:00:04.416Z,7.54
2022-12-22T21:03:17.758Z,7.49
2022-12-22T21:06:36.681Z,7.46
2022-12-22T21:09:49.916Z,7.47
2022-12-22T21:13:04.648Z,7.43
2022-12-22T21:16:26.461Z,7.39
2022-12-22T21:19:38.679Z,7.35
2022-12-22T21:22:51.007Z,7.34
2022-12-22T21:26:04.565Z,7.36
2022-12-22T21:29:24.274Z,7.40
2022-12-22T21:32:36.470Z,7.30
2022-12-22T21:35:48.813Z,7.29
2022-12-22T21:39:03.797Z,7.32
2022-12-22T21:42:20.284Z,7.24
2022-12-22T21:45:41.007Z,7.23
2022-12-22T21:48:50.813Z,7.17
2022-12-22T21:52:03.750Z,7.17
2022-12-22T21:55:17.373Z,7.13
2022-12-22T21:58:30.285Z,7.12
2022-12-22T22:01:45.289Z,7.13
2022-12-22T22:04:58.219Z,7.12
2022-12-22T22:08:14.137Z,7.13
2022-12-22T22:11:30.300Z,7.12
2022-12-22T22:14:44.908Z,7.03
2022-12-22T22:18:02.986Z,6.95
2022-12-22T22:21:18.410Z,6.91
2022-12-22T22:24:30.905Z,6.85
2022-12-22T22:27:47.664Z,6.83
2022-12-22T22:30:59.557Z,6.80
2022-12-22T22:34:12.516Z,6.86
2022-12-22T22:37:24.632Z,6.87
2022-12-22T22:40:36.825Z,6.92
2022-12-22T22:43:48.849Z,6.94
2022-12-22T22:47:01.068Z,6.88
2022-12-22T22:50:15.572Z,6.89
2022-12-22T22:53:27.656Z,6.99
2022-12-22T22:56:39.947Z,7.09
2022-12-22T22:59:54.798Z,7.13
2022-12-22T23:03:07.975Z,7.14
2022-12-22T23:06:20.917Z,7.15
2022-12-22T23:09:32.964Z,7.17
2022-12-22T23:12:44.988Z,7.24
2022-12-22T23:16:04.235Z,7.23
2022-12-22T23:19:16.394Z,7.28
2022-12-22T23:22:28.546Z,7.31
2022-12-22T23:25:40.702Z,7.29
2022-12-22T23:28:59.240Z,7.31
2022-12-22T23:32:09.782Z,7.33
2022-12-22T23:35:21.980Z,7.33
2022-12-22T23:38:34.034Z,7.34
2022-12-22T23:41:46.016Z,7.31
2022-12-22T23:44:58.176Z,7.31
2022-12-22T23:48:10.702Z,7.26
2022-12-22T23:51:22.834Z,7.20
2022-12-22T23:54:34.903Z,7.19
2022-12-22T23:57:46.904Z,7.14
